createdAt,value
2018-09-08T00:02:34.135Z,22.30
2018-09-08T00:05:08.526Z,22.20
2018-09-08T00:07:49.017Z,22.00
2018-09-08T00:10:22.680Z,21.90
2018-09-08T00:12:56.744Z,21.90
2018-09-08T00:15:34.285Z,22.10
2018-09-08T00:18:13.301Z,22.30
2018-09-08T00:20:54.300Z,22.50
2018-09-08T00:23:34.526Z,22.60
2018-09-08T00:26:17.135Z,22.70
2018-09-08T00:31:38.660Z,22.80
2018-09-08T00:34:12.979Z,22.80
2018-09-08T00:36:49.145Z,22.90
2018-09-08T00:39:24.348Z,22.80
2018-09-08T00:41:58.259Z,22.60
2018-09-08T00:44:31.820Z,22.60
2018-09-08T00:47:09.933Z,22.60
2018-09-08T00:49:43.856Z,22.50
2018-09-08T00:52:17.890Z,22.30
2018-09-08T00:54:52.896Z,22.20
2018-09-08T00:57:26.349Z,22.10
2018-09-08T01:00:00.530Z,22.00
2018-09-08T01:02:36.561Z,21.70
2018-09-08T01:05:09.960Z,21.50
2018-09-08T01:07:44.967Z,21.60
2018-09-08T01:10:19.900Z,21.70
2018-09-08T01:12:55.516Z,21.70
2018-09-08T01:15:29.949Z,21.80
2018-09-08T01:18:03.254Z,21.70
2018-09-08T01:20:36.454Z,21.60
2018-09-08T01:23:11.961Z,21.40
2018-09-08T01:25:45.310Z,21.10
2018-09-08T01:28:20.073Z,20.90
2018-09-08T01:30:55.218Z,20.70
2018-09-08T01:33:42.175Z,20.60
2018-09-08T01:36:17.498Z,20.50
2018-09-08T01:38:51.263Z,20.40
2018-09-08T01:41:28.840Z,20.30
2018-09-08T01:44:03.556Z,20.30
2018-09-08T01:46:37.777Z,20.20
2018-09-08T01:49:11.652Z,20.20
2018-09-08T01:51:45.107Z,20.00
2018-09-08T01:54:18.948Z,19.90
2018-09-08T01:56:52.146Z,19.80
2018-09-08T01:59:30.490Z,19.70
2018-09-08T02:02:03.898Z,19.60
2018-09-08T02:04:39.208Z,19.40
2018-09-08T02:07:12.580Z,19.30
2018-09-08T02:09:50.559Z,19.20
2018-09-08T02:12:24.983Z,19.10
2018-09-08T02:14:59.642Z,19.00
2018-09-08T02:17:42.297Z,18.90
2018-09-08T02:20:17.207Z,18.70
2018-09-08T02:22:50.102Z,18.60
2018-09-08T02:25:27.257Z,18.50
2018-09-08T02:28:00.277Z,18.50
2018-09-08T02:30:34.247Z,18.30
2018-09-08T02:33:08.226Z,18.30
2018-09-08T02:35:44.558Z,18.30
2018-09-08T02:38:20.384Z,18.20
2018-09-08T02:40:58.109Z,18.10
2018-09-08T02:43:35.076Z,18.10
2018-09-08T02:46:09.092Z,18.00
2018-09-08T02:48:43.071Z,18.00
2018-09-08T02:51:13.728Z,18.00
2018-09-08T02:53:44.338Z,18.00
2018-09-08T02:56:14.600Z,18.00
2018-09-08T02:58:46.900Z,18.00
2018-09-08T03:01:17.656Z,17.90
2018-09-08T03:03:47.962Z,17.80
2018-09-08T03:06:18.158Z,17.80
2018-09-08T03:08:48.718Z,17.80
2018-09-08T03:11:22.762Z,17.70
2018-09-08T03:13:52.561Z,17.50
2018-09-08T03:16:23.026Z,17.40
2018-09-08T03:18:52.885Z,17.20
2018-09-08T03:21:23.217Z,17.10
2018-09-08T03:23:54.070Z,16.90
2018-09-08T03:26:24.433Z,16.70
2018-09-08T03:28:55.352Z,16.60
2018-09-08T03:31:25.849Z,16.50
2018-09-08T03:33:56.280Z,16.40
2018-09-08T03:36:27.430Z,16.40
2018-09-08T03:38:58.384Z,16.30
2018-09-08T03:41:29.992Z,16.20
2018-09-08T03:44:00.450Z,16.20
2018-09-08T03:46:31.493Z,16.20
2018-09-08T03:49:01.995Z,16.20
2018-09-08T03:51:32.064Z,16.10
2018-09-08T03:54:02.293Z,16.10
2018-09-08T03:56:33.023Z,16.00
2018-09-08T03:59:03.314Z,16.00
2018-09-08T04:01:33.805Z,15.90
2018-09-08T04:04:06.906Z,15.80
2018-09-08T04:06:40.942Z,15.80
2018-09-08T04:09:14.405Z,15.80
2018-09-08T04:11:48.697Z,15.70
2018-09-08T04:14:22.435Z,15.70
2018-09-08T04:16:55.648Z,15.70
2018-09-08T04:19:29.228Z,15.70
2018-09-08T04:22:03.458Z,15.50
2018-09-08T04:24:36.577Z,15.50
2018-09-08T04:27:22.635Z,15.50
2018-09-08T04:30:05.435Z,15.50
2018-09-08T04:32:39.374Z,15.60
2018-09-08T04:35:12.764Z,15.60
2018-09-08T04:37:46.156Z,15.60
2018-09-08T04:40:20.582Z,15.60
2018-09-08T04:42:54.181Z,15.60
2018-09-08T04:45:27.557Z,15.60
2018-09-08T04:48:00.680Z,15.60
2018-09-08T04:50:34.171Z,15.50
2018-09-08T04:53:08.376Z,15.50
2018-09-08T04:55:41.989Z,15.40
2018-09-08T04:58:15.746Z,15.40
2018-09-08T05:00:49.096Z,15.40
2018-09-08T05:03:22.586Z,15.60
2018-09-08T05:05:56.307Z,15.50
2018-09-08T05:08:29.807Z,15.40
2018-09-08T05:11:06.252Z,15.40
2018-09-08T05:13:40.900Z,15.30
2018-09-08T05:16:15.427Z,15.20
2018-09-08T05:18:48.489Z,15.20
2018-09-08T05:21:22.696Z,15.10
2018-09-08T05:24:12.079Z,15.20
2018-09-08T05:26:45.752Z,15.20
2018-09-08T05:29:19.235Z,15.20
2018-09-08T05:31:52.826Z,15.20
2018-09-08T05:34:26.134Z,15.20
2018-09-08T05:36:59.483Z,15.10
2018-09-08T05:39:33.391Z,15.20
2018-09-08T05:42:06.958Z,15.20
2018-09-08T05:44:41.257Z,15.20
2018-09-08T05:47:14.788Z,15.20
2018-09-08T05:49:48.331Z,15.20
2018-09-08T05:52:22.966Z,15.10
2018-09-08T05:54:57.283Z,15.10
2018-09-08T05:57:31.713Z,15.10
2018-09-08T06:00:05.448Z,15.10
2018-09-08T06:02:38.744Z,15.10
2018-09-08T06:05:12.120Z,15.10
2018-09-08T06:07:45.711Z,15.10
2018-09-08T06:10:19.289Z,15.10
2018-09-08T06:12:52.472Z,15.10
2018-09-08T06:15:26.513Z,15.00
2018-09-08T06:18:00.083Z,15.00
2018-09-08T06:20:33.491Z,14.90
2018-09-08T06:23:07.765Z,14.90
2018-09-08T06:25:41.909Z,14.80
2018-09-08T06:28:15.552Z,14.80
2018-09-08T06:30:48.991Z,14.80
2018-09-08T06:33:22.750Z,14.80
2018-09-08T06:35:56.236Z,14.80
2018-09-08T06:38:29.659Z,14.70
2018-09-08T06:41:03.285Z,14.70
2018-09-08T06:43:36.856Z,14.70
2018-09-08T06:46:10.690Z,14.70
2018-09-08T06:48:44.044Z,14.60
2018-09-08T06:51:17.195Z,14.60
2018-09-08T06:53:50.701Z,14.50
2018-09-08T06:56:24.212Z,14.50
2018-09-08T06:58:57.626Z,14.40
2018-09-08T07:01:31.115Z,14.40
2018-09-08T07:04:04.599Z,14.40
2018-09-08T07:06:37.838Z,14.40
2018-09-08T07:09:13.065Z,14.30
2018-09-08T07:11:47.954Z,14.30
2018-09-08T07:14:26.756Z,14.30
2018-09-08T07:17:00.015Z,14.30
2018-09-08T07:19:33.457Z,14.30
2018-09-08T07:22:06.949Z,14.20
2018-09-08T07:24:41.228Z,14.20
2018-09-08T07:27:14.925Z,14.20
2018-09-08T07:29:49.891Z,14.30
2018-09-08T07:32:23.182Z,14.30
2018-09-08T07:34:56.620Z,14.20
2018-09-08T07:37:29.812Z,14.30
2018-09-08T07:40:03.022Z,14.30
2018-09-08T07:42:37.147Z,14.30
2018-09-08T07:55:43.034Z,14.40
2018-09-08T07:58:20.625Z,14.40
2018-09-08T08:00:54.961Z,14.50
2018-09-08T08:03:31.332Z,14.50
2018-09-08T08:06:04.911Z,14.50
2018-09-08T08:08:38.517Z,14.50
2018-09-08T08:11:12.071Z,14.40
2018-09-08T08:13:48.740Z,14.50
2018-09-08T08:16:22.099Z,14.40
2018-09-08T08:18:55.372Z,14.40
2018-09-08T08:21:28.813Z,14.40
2018-09-08T08:24:02.125Z,14.40
2018-09-08T08:26:35.695Z,14.40
2018-09-08T08:29:10.296Z,14.40
2018-09-08T08:31:43.763Z,14.30
2018-09-08T08:34:17.196Z,14.40
2018-09-08T08:36:50.660Z,14.40
2018-09-08T08:39:24.722Z,14.40
2018-09-08T08:41:57.973Z,14.40
2018-09-08T08:44:31.268Z,14.30
2018-09-08T08:47:04.802Z,14.30
2018-09-08T08:49:38.513Z,14.40
2018-09-08T08:52:21.755Z,14.40
2018-09-08T08:54:58.688Z,14.40
2018-09-08T08:57:31.999Z,14.50
2018-09-08T09:00:05.381Z,14.50
2018-09-08T09:02:38.743Z,14.50
2018-09-08T09:05:14.682Z,14.50
2018-09-08T09:07:47.858Z,14.50
2018-09-08T09:10:21.149Z,14.50
2018-09-08T09:12:54.415Z,14.60
2018-09-08T09:15:28.283Z,14.50
2018-09-08T09:18:01.582Z,14.60
2018-09-08T09:20:44.008Z,14.60
2018-09-08T09:25:24.420Z,14.60
2018-09-08T09:27:57.847Z,14.70
2018-09-08T09:30:31.162Z,14.70
2018-09-08T09:33:04.679Z,14.70
2018-09-08T09:35:38.148Z,14.60
2018-09-08T09:38:11.393Z,14.60
2018-09-08T09:40:45.389Z,14.60
2018-09-08T09:43:19.456Z,14.60
2018-09-08T09:45:52.656Z,14.60
2018-09-08T09:48:27.538Z,14.50
2018-09-08T09:51:00.966Z,14.40
2018-09-08T09:56:10.980Z,14.40
2018-09-08T09:58:44.422Z,14.40
2018-09-08T10:01:22.419Z,14.40
2018-09-08T10:03:56.239Z,14.40
2018-09-08T10:06:30.419Z,14.40
2018-09-08T10:09:04.880Z,14.40
2018-09-08T10:11:38.541Z,14.50
2018-09-08T10:14:12.691Z,14.40
2018-09-08T10:16:47.271Z,14.40
2018-09-08T10:19:20.980Z,14.40
2018-09-08T10:21:54.888Z,14.40
2018-09-08T10:24:29.233Z,14.30
2018-09-08T10:27:03.550Z,14.20
2018-09-08T10:29:37.191Z,14.20
2018-09-08T10:32:12.053Z,14.20
2018-09-08T10:34:45.671Z,14.20
2018-09-08T10:37:19.514Z,14.20
2018-09-08T10:39:53.201Z,14.30
2018-09-08T10:42:28.755Z,14.30
2018-09-08T10:45:02.542Z,14.20
2018-09-08T10:47:36.388Z,14.20
2018-09-08T10:50:10.274Z,14.20
2018-09-08T10:52:50.137Z,14.20
2018-09-08T10:55:25.183Z,14.20
2018-09-08T10:57:58.355Z,14.30
2018-09-08T11:00:31.837Z,14.30
2018-09-08T11:03:05.704Z,14.30
2018-09-08T11:05:39.234Z,14.30
2018-09-08T11:08:12.752Z,14.30
2018-09-08T11:10:45.847Z,14.30
2018-09-08T11:13:19.617Z,14.30
2018-09-08T11:15:53.548Z,14.40
2018-09-08T11:18:26.721Z,14.40
2018-09-08T11:21:00.055Z,14.40
2018-09-08T11:23:34.171Z,14.40
2018-09-08T11:26:07.299Z,14.40
2018-09-08T11:28:40.939Z,14.40
2018-09-08T11:31:14.309Z,14.40
2018-09-08T11:33:47.238Z,14.40
2018-09-08T11:36:20.686Z,14.30
2018-09-08T11:38:53.953Z,14.30
2018-09-08T11:41:27.281Z,14.30
2018-09-08T11:44:00.757Z,14.30
2018-09-08T11:46:35.514Z,14.40
2018-09-08T11:49:09.035Z,14.40
2018-09-08T11:51:42.218Z,14.40
2018-09-08T11:54:16.851Z,14.40
2018-09-08T11:56:50.518Z,14.40
2018-09-08T11:59:23.967Z,14.40
2018-09-08T12:01:57.150Z,14.40
2018-09-08T12:04:31.946Z,14.40
2018-09-08T12:07:05.238Z,14.40
2018-09-08T12:09:38.241Z,14.40
2018-09-08T12:12:12.172Z,14.40
2018-09-08T12:14:45.757Z,14.50
2018-09-08T12:17:19.431Z,14.50
2018-09-08T12:19:52.949Z,14.50
2018-09-08T12:22:26.142Z,14.50
2018-09-08T12:24:59.627Z,14.50
2018-09-08T12:27:32.849Z,14.50
2018-09-08T12:30:06.411Z,14.50
2018-09-08T12:32:40.383Z,14.50
2018-09-08T12:35:13.961Z,14.60
2018-09-08T12:37:47.606Z,14.50
2018-09-08T12:40:21.372Z,14.50
2018-09-08T12:42:54.833Z,14.60
2018-09-08T12:45:28.513Z,14.60
2018-09-08T12:48:02.691Z,14.50
2018-09-08T12:50:36.108Z,14.50
2018-09-08T12:56:01.453Z,14.50
2018-09-08T12:58:35.486Z,14.40
2018-09-08T13:01:09.179Z,14.50
2018-09-08T13:03:43.034Z,14.40
2018-09-08T13:06:18.098Z,14.40
2018-09-08T13:08:51.329Z,14.40
2018-09-08T13:11:24.572Z,14.50
2018-09-08T13:13:57.730Z,14.40
2018-09-08T13:16:31.926Z,14.40
2018-09-08T13:19:06.688Z,14.40
2018-09-08T13:21:39.932Z,14.40
2018-09-08T13:24:13.258Z,14.30
2018-09-08T13:26:47.270Z,14.30
2018-09-08T13:29:22.673Z,14.40
2018-09-08T13:31:55.864Z,14.40
2018-09-08T13:34:29.176Z,14.40
2018-09-08T13:37:02.801Z,14.40
2018-09-08T13:39:36.295Z,14.40
2018-09-08T13:42:10.018Z,14.40
2018-09-08T13:44:43.291Z,14.50
2018-09-08T13:47:16.492Z,14.50
2018-09-08T13:49:49.778Z,14.50
2018-09-08T13:52:23.865Z,14.50
2018-09-08T13:54:57.067Z,14.50
2018-09-08T13:57:32.020Z,14.60
2018-09-08T14:00:05.183Z,14.60
2018-09-08T14:02:38.363Z,14.50
2018-09-08T14:05:11.551Z,14.50
2018-09-08T14:07:48.564Z,14.50
2018-09-08T14:10:22.050Z,14.60
2018-09-08T14:12:55.588Z,14.50
2018-09-08T14:15:29.046Z,14.50
2018-09-08T14:18:03.801Z,14.50
2018-09-08T14:20:37.762Z,14.50
2018-09-08T14:23:11.278Z,14.50
2018-09-08T14:25:44.871Z,14.50
2018-09-08T14:28:17.929Z,14.50
2018-09-08T14:30:51.962Z,14.50
2018-09-08T14:33:25.772Z,14.50
2018-09-08T14:35:59.062Z,14.60
2018-09-08T14:38:32.834Z,14.60
2018-09-08T14:41:07.221Z,14.60
2018-09-08T14:43:40.495Z,14.70
2018-09-08T14:46:13.980Z,14.70
2018-09-08T14:48:47.187Z,14.70
2018-09-08T14:51:20.350Z,14.80
2018-09-08T14:53:53.905Z,14.80
2018-09-08T14:56:27.035Z,14.80
2018-09-08T14:59:03.189Z,14.80
2018-09-08T15:01:36.663Z,14.90
2018-09-08T15:04:10.063Z,14.80
2018-09-08T15:06:43.388Z,14.80
2018-09-08T15:09:17.412Z,14.80
2018-09-08T15:11:50.714Z,14.80
2018-09-08T15:14:24.027Z,14.80
2018-09-08T15:16:58.154Z,14.70
2018-09-08T15:19:33.364Z,14.80
2018-09-08T15:22:07.845Z,14.80
2018-09-08T15:24:42.475Z,14.70
2018-09-08T15:27:18.054Z,14.80
2018-09-08T15:29:52.412Z,14.80
2018-09-08T15:32:26.873Z,14.90
2018-09-08T15:35:02.584Z,14.90
2018-09-08T15:37:38.814Z,14.80
2018-09-08T15:40:17.742Z,14.80
2018-09-08T15:42:51.851Z,14.80
2018-09-08T15:45:26.547Z,14.80
2018-09-08T15:48:00.548Z,14.80
2018-09-08T15:50:34.797Z,14.90
2018-09-08T15:53:10.334Z,14.90
2018-09-08T15:55:44.297Z,15.10
2018-09-08T15:58:18.223Z,15.20
2018-09-08T16:00:52.197Z,15.20
2018-09-08T16:03:26.760Z,15.20
2018-09-08T16:06:00.927Z,15.10
2018-09-08T16:08:35.004Z,15.10
2018-09-08T16:11:10.386Z,15.10
2018-09-08T16:13:48.406Z,15.20
2018-09-08T16:16:22.986Z,15.20
2018-09-08T16:18:57.458Z,15.40
2018-09-08T16:21:31.468Z,15.60
2018-09-08T16:24:05.275Z,15.60
2018-09-08T16:26:39.128Z,15.70
2018-09-08T16:29:13.377Z,15.70
2018-09-08T16:31:51.452Z,16.10
2018-09-08T16:34:25.928Z,16.30
2018-09-08T16:37:00.920Z,16.30
2018-09-08T16:39:34.397Z,16.30
2018-09-08T16:42:07.632Z,16.40
2018-09-08T16:44:41.837Z,16.30
2018-09-08T16:47:15.144Z,16.20
2018-09-08T16:49:48.416Z,16.30
2018-09-08T16:52:22.085Z,16.50
2018-09-08T16:54:56.253Z,16.80
2018-09-08T16:57:31.689Z,16.60
2018-09-08T17:00:04.864Z,16.50
2018-09-08T17:02:38.057Z,16.60
2018-09-08T17:05:17.017Z,16.50
2018-09-08T17:07:52.483Z,16.50
2018-09-08T17:10:26.201Z,16.60
2018-09-08T17:13:00.246Z,16.80
2018-09-08T17:15:33.672Z,16.90
2018-09-08T17:18:08.963Z,16.90
2018-09-08T17:20:43.465Z,16.80
2018-09-08T17:23:26.426Z,16.70
2018-09-08T17:25:59.935Z,16.90
2018-09-08T17:28:39.526Z,16.90
2018-09-08T17:31:14.362Z,16.90
2018-09-08T17:33:48.315Z,17.20
2018-09-08T17:36:22.072Z,17.40
2018-09-08T17:38:56.612Z,17.30
2018-09-08T17:41:32.494Z,17.10
2018-09-08T17:44:05.613Z,17.30
2018-09-08T17:46:39.464Z,17.30
2018-09-08T17:49:12.944Z,17.60
2018-09-08T17:51:46.461Z,17.60
2018-09-08T17:54:20.879Z,18.00
2018-09-08T17:56:55.318Z,18.10
2018-09-08T17:59:29.465Z,18.20
2018-09-08T18:02:02.969Z,18.00
2018-09-08T18:04:36.890Z,18.00
2018-09-08T18:07:13.835Z,17.80
2018-09-08T18:09:47.414Z,17.70
2018-09-08T18:12:22.778Z,17.80
2018-09-08T18:14:55.989Z,17.60
2018-09-08T18:17:30.357Z,17.50
2018-09-08T18:20:03.820Z,17.90
2018-09-08T18:22:38.885Z,18.20
2018-09-08T18:25:12.174Z,18.40
2018-09-08T18:27:45.448Z,18.50
2018-09-08T18:30:18.884Z,18.40
2018-09-08T18:32:53.400Z,18.50
2018-09-08T18:35:28.271Z,18.90
2018-09-08T18:38:01.503Z,18.90
2018-09-08T18:40:36.084Z,18.70
2018-09-08T18:43:09.608Z,18.40
2018-09-08T18:45:42.845Z,18.40
2018-09-08T18:48:17.545Z,18.30
2018-09-08T18:50:52.204Z,18.20
2018-09-08T18:53:27.435Z,17.80
2018-09-08T18:56:00.948Z,17.70
2018-09-08T18:58:34.697Z,17.70
2018-09-08T19:01:09.967Z,18.00
2018-09-08T19:03:46.158Z,18.10
2018-09-08T19:06:19.589Z,18.00
2018-09-08T19:08:53.699Z,18.10
2018-09-08T19:11:27.155Z,18.30
2018-09-08T19:14:00.479Z,18.60
2018-09-08T19:16:33.806Z,18.80
2018-09-08T19:19:07.154Z,19.10
2018-09-08T19:21:41.469Z,19.50
2018-09-08T19:24:18.680Z,19.80
2018-09-08T19:26:52.391Z,19.90
2018-09-08T19:29:30.145Z,20.00
2018-09-08T19:32:03.992Z,19.90
2018-09-08T19:34:37.791Z,19.60
2018-09-08T19:37:11.584Z,19.60
2018-09-08T19:39:45.447Z,19.50
2018-09-08T19:42:18.431Z,19.20
2018-09-08T19:44:51.380Z,19.20
2018-09-08T19:47:29.023Z,19.50
2018-09-08T19:50:02.202Z,19.30
2018-09-08T19:52:39.710Z,19.00
2018-09-08T19:55:13.540Z,19.10
2018-09-08T19:57:52.947Z,19.00
2018-09-08T20:00:26.432Z,19.10
2018-09-08T20:03:01.130Z,19.10
2018-09-08T20:05:36.570Z,19.40
2018-09-08T20:08:10.242Z,19.20
2018-09-08T20:10:43.453Z,19.30
2018-09-08T20:13:17.725Z,19.30
2018-09-08T20:15:51.160Z,19.30
2018-09-08T20:18:24.673Z,19.10
2018-09-08T20:20:59.376Z,19.10
2018-09-08T20:23:33.069Z,19.00
2018-09-08T20:26:06.372Z,18.70
2018-09-08T20:28:40.052Z,18.60
2018-09-08T20:38:09.815Z,18.60
2018-09-08T20:40:43.780Z,18.80
2018-09-08T20:43:19.685Z,18.80
2018-09-08T20:45:54.365Z,18.90
2018-09-08T20:48:28.057Z,18.70
2018-09-08T20:51:04.773Z,18.90
2018-09-08T20:53:38.601Z,19.10
2018-09-08T20:56:12.052Z,19.40
2018-09-08T20:58:46.004Z,19.40
2018-09-08T21:01:19.232Z,19.70
2018-09-08T21:03:56.195Z,20.00
2018-09-08T21:06:30.541Z,19.40
2018-09-08T21:09:04.319Z,19.20
2018-09-08T21:11:40.245Z,19.30
2018-09-08T21:14:14.883Z,19.40
2018-09-08T21:16:49.004Z,19.30
2018-09-08T21:19:23.561Z,19.40
2018-09-08T21:21:56.816Z,19.40
2018-09-08T21:24:31.352Z,19.30
2018-09-08T21:27:04.502Z,19.40
2018-09-08T21:29:38.151Z,19.50
2018-09-08T21:32:12.373Z,19.20
2018-09-08T21:34:46.297Z,19.20
2018-09-08T21:37:19.589Z,19.10
2018-09-08T21:39:53.294Z,19.30
2018-09-08T21:42:29.956Z,19.20
2018-09-08T21:45:13.642Z,19.40
2018-09-08T21:47:46.709Z,19.70
2018-09-08T21:50:20.842Z,20.00
2018-09-08T21:52:54.193Z,19.80
2018-09-08T21:55:27.771Z,20.10
2018-09-08T21:58:01.986Z,20.10
2018-09-08T22:00:37.184Z,20.30
2018-09-08T22:03:10.922Z,20.30
2018-09-08T22:05:44.144Z,20.10
2018-09-08T22:08:17.507Z,20.10
2018-09-08T22:10:51.308Z,20.10
2018-09-08T22:13:28.311Z,20.20
2018-09-08T22:16:02.549Z,20.00
2018-09-08T22:18:36.788Z,20.20
2018-09-08T22:21:10.150Z,20.20
2018-09-08T22:23:45.088Z,20.50
2018-09-08T22:26:20.490Z,20.60
2018-09-08T22:28:53.979Z,20.70
2018-09-08T22:31:27.846Z,21.00
2018-09-08T22:34:01.435Z,21.00
2018-09-08T22:36:35.426Z,20.70
2018-09-08T22:39:09.443Z,20.80
2018-09-08T22:41:44.934Z,20.70
2018-09-08T22:44:18.165Z,20.80
2018-09-08T22:46:51.348Z,20.90
2018-09-08T22:49:24.642Z,20.80
2018-09-08T22:51:58.143Z,20.90
2018-09-08T22:54:36.563Z,21.30
2018-09-08T22:57:11.066Z,21.30
2018-09-08T22:59:46.077Z,21.20
2018-09-08T23:02:19.213Z,21.40
2018-09-08T23:04:52.492Z,21.60
2018-09-08T23:07:27.960Z,21.90
2018-09-08T23:10:03.722Z,21.90
2018-09-08T23:12:37.681Z,21.70
2018-09-08T23:15:11.373Z,21.20
2018-09-08T23:17:46.489Z,21.50
2018-09-08T23:20:21.845Z,21.40
2018-09-08T23:22:58.519Z,21.30
2018-09-08T23:25:32.680Z,21.40
2018-09-08T23:28:06.504Z,21.50
2018-09-08T23:30:40.429Z,21.50
2018-09-08T23:33:13.760Z,21.40
2018-09-08T23:35:46.513Z,21.30
2018-09-08T23:38:20.890Z,20.90
2018-09-08T23:40:54.875Z,20.90
2018-09-08T23:43:29.875Z,20.90
2018-09-08T23:46:04.699Z,21.10
2018-09-08T23:48:38.218Z,20.90
2018-09-08T23:51:12.594Z,20.70
2018-09-08T23:53:45.577Z,20.40
2018-09-08T23:56:28.530Z,20.50
2018-09-08T23:59:10.142Z,20.30
